FWV912 EDDM-LOWI
Flight info
| Callsign | FWV912 |
|---|---|
| Flight time | N/A |
| Altitude | 15000 |
| Route | TURBU6E/08R TURBU Y107 RTT RTT1B |
| Aircraft | A320/M-SDE3FGHIRWY/LB1 |
Departure
| Time | 2026-05-01 13:16 |
|---|---|
| Airport | Munich Airport (EDDM) |
Arrival
| Time | N/A |
|---|---|
| Airport | Innsbruck Airport (LOWI) |
| Time | Latitude | Longitude | Altitude | Speed | Heading |
|---|---|---|---|---|---|
| 2026-05-01 12:41 | 48.35034 | 11.80099 | 1481 ft | 0 kts | 173° |
| 2026-05-01 12:58 | 48.35041 | 11.80097 | 1489 ft | 0 kts | 353° |
| 2026-05-01 13:07 | 48.34775 | 11.79348 | 1485 ft | 12 kts | 262° |
| 2026-05-01 13:07 | 48.34764 | 11.79208 | 1483 ft | 15 kts | 263° |
| 2026-05-01 13:07 | 48.34752 | 11.79048 | 1479 ft | 16 kts | 265° |
| 2026-05-01 13:08 | 48.34738 | 11.78876 | 1472 ft | 17 kts | 264° |
| 2026-05-01 13:08 | 48.34726 | 11.78696 | 1485 ft | 17 kts | 263° |
| 2026-05-01 13:08 | 48.34710 | 11.78516 | 1485 ft | 17 kts | 264° |
| 2026-05-01 13:08 | 48.34698 | 11.78338 | 1476 ft | 17 kts | 263° |
| 2026-05-01 13:09 | 48.34683 | 11.78158 | 1480 ft | 18 kts | 263° |
| 2026-05-01 13:09 | 48.34669 | 11.77971 | 1485 ft | 18 kts | 263° |
| 2026-05-01 13:09 | 48.34654 | 11.77775 | 1482 ft | 19 kts | 263° |
| 2026-05-01 13:09 | 48.34639 | 11.77577 | 1485 ft | 19 kts | 264° |
| 2026-05-01 13:10 | 48.34624 | 11.77384 | 1478 ft | 18 kts | 263° |
| 2026-05-01 13:10 | 48.34609 | 11.77195 | 1477 ft | 19 kts | 263° |
| 2026-05-01 13:10 | 48.34595 | 11.77000 | 1476 ft | 19 kts | 264° |
| 2026-05-01 13:10 | 48.34579 | 11.76805 | 1475 ft | 18 kts | 263° |
| 2026-05-01 13:11 | 48.34565 | 11.76612 | 1474 ft | 19 kts | 264° |
| 2026-05-01 13:11 | 48.34549 | 11.76414 | 1481 ft | 20 kts | 263° |
| 2026-05-01 13:11 | 48.34533 | 11.76203 | 1481 ft | 21 kts | 263° |
| 2026-05-01 13:11 | 48.34516 | 11.75981 | 1485 ft | 21 kts | 264° |
| 2026-05-01 13:12 | 48.34496 | 11.75795 | 1484 ft | 12 kts | 243° |
| 2026-05-01 13:12 | 48.34431 | 11.75781 | 1480 ft | 10 kts | 170° |
| 2026-05-01 13:12 | 48.34368 | 11.75830 | 1479 ft | 11 kts | 124° |
| 2026-05-01 13:12 | 48.34334 | 11.75945 | 1474 ft | 12 kts | 113° |
| 2026-05-01 13:13 | 48.34298 | 11.76070 | 1471 ft | 13 kts | 113° |
| 2026-05-01 13:13 | 48.34261 | 11.76201 | 1473 ft | 14 kts | 113° |
| 2026-05-01 13:13 | 48.34221 | 11.76336 | 1485 ft | 6 kts | 116° |
| 2026-05-01 13:13 | 48.34200 | 11.76398 | 1471 ft | 7 kts | 117° |
| 2026-05-01 13:14 | 48.34174 | 11.76474 | 1479 ft | 8 kts | 104° |
| 2026-05-01 13:14 | 48.34178 | 11.76535 | 1479 ft | 0 kts | 83° |
| 2026-05-01 13:15 | 48.34178 | 11.76536 | 1480 ft | 0 kts | 83° |
| 2026-05-01 13:15 | 48.34178 | 11.76538 | 1480 ft | 0 kts | 83° |
| 2026-05-01 13:15 | 48.34200 | 11.76827 | 1485 ft | 61 kts | 83° |
| 2026-05-01 13:16 | 48.34274 | 11.77777 | 1483 ft | 117 kts | 83° |
| 2026-05-01 13:16 | 48.34384 | 11.79210 | 1503 ft | 157 kts | 84° |
| 2026-05-01 13:16 | 48.34509 | 11.80813 | 2120 ft | 153 kts | 83° |
| 2026-05-01 13:17 | 48.34872 | 11.85772 | 3758 ft | 182 kts | 84° |
| 2026-05-01 13:17 | 48.34985 | 11.87789 | 4029 ft | 206 kts | 94° |
| 2026-05-01 13:18 | 48.33005 | 11.91177 | 4954 ft | 257 kts | 165° |
| 2026-05-01 13:18 | 48.31203 | 11.91497 | 5837 ft | 264 kts | 173° |
| 2026-05-01 13:18 | 48.29350 | 11.91561 | 6705 ft | 270 kts | 175° |
| 2026-05-01 13:18 | 48.27461 | 11.91541 | 7488 ft | 274 kts | 177° |
| 2026-05-01 13:19 | 48.25537 | 11.91512 | 8266 ft | 279 kts | 178° |
| 2026-05-01 13:19 | 48.23580 | 11.91503 | 9030 ft | 284 kts | 177° |
| 2026-05-01 13:19 | 48.22907 | 11.91507 | 9281 ft | 286 kts | 177° |